createdAt,value
2019-05-20T00:00:11.255Z,993.02
2019-05-20T00:01:11.181Z,993.01
2019-05-20T00:02:24.546Z,993.03
2019-05-20T00:03:11.081Z,992.98
2019-05-20T00:04:11.030Z,993.00
2019-05-20T00:05:11.003Z,993.00
2019-05-20T00:06:10.941Z,993.02
2019-05-20T00:07:10.883Z,993.05
2019-05-20T00:08:10.834Z,993.06
2019-05-20T00:09:10.783Z,993.07
2019-05-20T00:10:10.755Z,993.08
2019-05-20T00:11:10.675Z,993.08
2019-05-20T00:12:10.632Z,993.07
2019-05-20T00:13:10.582Z,993.05
2019-05-20T00:14:10.534Z,993.06
2019-05-20T00:15:10.507Z,993.06
2019-05-20T00:16:10.429Z,993.10
2019-05-20T00:17:10.379Z,993.05
2019-05-20T00:18:10.327Z,993.03
2019-05-20T00:19:10.283Z,992.99
2019-05-20T00:20:10.255Z,993.04
2019-05-20T00:21:10.177Z,992.97
2019-05-20T00:22:10.126Z,993.02
2019-05-20T00:23:10.078Z,993.00
2019-05-20T00:24:10.026Z,993.00
2019-05-20T00:25:10.007Z,992.98
2019-05-20T00:26:09.929Z,992.97
2019-05-20T00:27:09.877Z,992.98
2019-05-20T00:28:09.828Z,992.99
2019-05-20T00:29:09.778Z,992.97
2019-05-20T00:30:09.753Z,993.00
2019-05-20T00:31:09.675Z,993.00
2019-05-20T00:32:09.623Z,992.98
2019-05-20T00:33:09.575Z,992.99
2019-05-20T00:34:09.528Z,993.02
2019-05-20T00:35:09.497Z,993.03
2019-05-20T00:36:09.423Z,993.03
2019-05-20T00:37:09.370Z,992.98
2019-05-20T00:38:09.328Z,993.03
2019-05-20T00:39:09.264Z,993.07
2019-05-20T00:40:09.244Z,993.08
2019-05-20T00:41:09.167Z,993.07
2019-05-20T00:42:09.116Z,993.10
2019-05-20T00:43:09.074Z,993.07
2019-05-20T00:44:09.019Z,993.11
2019-05-20T00:45:08.997Z,993.12
2019-05-20T00:46:08.918Z,993.15
2019-05-20T00:47:08.869Z,993.13
2019-05-20T00:48:08.817Z,993.12
2019-05-20T00:49:08.767Z,993.11
2019-05-20T00:50:08.746Z,993.08
2019-05-20T00:51:08.673Z,993.08
2019-05-20T00:52:08.627Z,993.05
2019-05-20T00:53:08.586Z,993.03
2019-05-20T00:54:08.522Z,993.02
2019-05-20T00:55:08.495Z,993.02
2019-05-20T00:56:08.418Z,993.03
2019-05-20T00:57:08.363Z,993.01
2019-05-20T00:58:08.317Z,993.03
2019-05-20T00:59:08.269Z,993.03
2019-05-20T01:00:08.259Z,993.01
2019-05-20T01:01:08.182Z,993.01
2019-05-20T01:02:08.121Z,992.99
2019-05-20T01:03:08.070Z,993.02
2019-05-20T01:04:08.012Z,993.01
2019-05-20T01:05:07.985Z,993.01
2019-05-20T01:06:07.916Z,993.05
2019-05-20T01:07:07.865Z,993.05
2019-05-20T01:08:07.810Z,993.05
2019-05-20T01:09:07.759Z,993.09
2019-05-20T01:10:07.737Z,993.08
2019-05-20T01:11:07.664Z,993.08
2019-05-20T01:12:07.608Z,993.09
2019-05-20T01:13:07.557Z,993.07
2019-05-20T01:14:07.508Z,993.06
2019-05-20T01:15:07.483Z,993.01
2019-05-20T01:16:07.408Z,993.09
2019-05-20T01:17:07.360Z,993.07
2019-05-20T01:18:07.306Z,993.06
2019-05-20T01:19:07.257Z,993.08
2019-05-20T01:20:07.232Z,993.10
2019-05-20T01:21:07.156Z,993.06
2019-05-20T01:22:07.103Z,993.05
2019-05-20T01:23:07.056Z,993.09
2019-05-20T01:24:07.008Z,993.10
2019-05-20T01:25:06.980Z,993.10
2019-05-20T01:26:06.901Z,993.08
2019-05-20T01:27:06.850Z,993.10
2019-05-20T01:28:06.799Z,993.06
2019-05-20T01:29:06.751Z,993.06
2019-05-20T01:30:06.723Z,993.07
2019-05-20T01:31:06.651Z,993.05
2019-05-20T01:32:06.597Z,993.06
2019-05-20T01:33:13.917Z,993.06
2019-05-20T01:34:06.494Z,993.02
2019-05-20T01:35:06.472Z,993.02
2019-05-20T01:36:06.395Z,992.98
2019-05-20T01:37:06.344Z,993.04
2019-05-20T01:38:06.297Z,993.04
2019-05-20T01:39:06.251Z,993.02
2019-05-20T01:40:06.218Z,993.02
2019-05-20T01:41:06.167Z,993.00
2019-05-20T01:42:06.091Z,992.97
2019-05-20T01:43:06.053Z,992.99
2019-05-20T01:44:05.989Z,992.97
2019-05-20T01:45:05.942Z,993.04
2019-05-20T01:46:05.914Z,992.99
2019-05-20T01:47:05.840Z,992.99
2019-05-20T01:48:05.794Z,993.03
2019-05-20T01:49:05.741Z,993.06
2019-05-20T01:50:05.688Z,993.12
2019-05-20T01:51:05.661Z,993.20
2019-05-20T01:52:05.588Z,993.16
2019-05-20T01:53:05.537Z,993.21
2019-05-20T01:54:05.482Z,993.24
2019-05-20T01:55:05.427Z,993.25
2019-05-20T01:56:05.408Z,993.29
2019-05-20T01:57:05.334Z,993.27
2019-05-20T01:58:05.285Z,993.32
2019-05-20T01:59:05.230Z,993.26
2019-05-20T02:00:05.183Z,993.29
2019-05-20T02:01:05.151Z,993.29
2019-05-20T02:02:05.078Z,993.31
2019-05-20T02:03:05.029Z,993.33
2019-05-20T02:04:04.984Z,993.30
2019-05-20T02:05:04.926Z,993.31
2019-05-20T02:06:04.900Z,993.34
2019-05-20T02:07:04.837Z,993.26
2019-05-20T02:08:04.777Z,993.32
2019-05-20T02:09:04.733Z,993.27
2019-05-20T02:10:04.686Z,993.24
2019-05-20T02:11:04.646Z,993.24
2019-05-20T02:12:04.579Z,993.26
2019-05-20T02:13:04.523Z,993.25
2019-05-20T02:14:04.467Z,993.26
2019-05-20T02:15:04.428Z,993.26
2019-05-20T02:16:04.421Z,993.26
2019-05-20T02:17:04.322Z,993.27
2019-05-20T02:18:04.270Z,993.26
2019-05-20T02:19:04.214Z,993.23
2019-05-20T02:20:04.176Z,993.22
2019-05-20T02:21:04.151Z,993.21
2019-05-20T02:22:04.065Z,993.20
2019-05-20T02:23:04.013Z,993.19
2019-05-20T02:24:03.966Z,993.15
2019-05-20T02:25:03.908Z,993.17
2019-05-20T02:26:03.900Z,993.16
2019-05-20T02:27:03.811Z,993.13
2019-05-20T02:28:03.761Z,993.12
2019-05-20T02:29:03.738Z,993.10
2019-05-20T02:30:03.663Z,993.09
2019-05-20T02:31:03.631Z,993.09
2019-05-20T02:32:03.555Z,993.07
2019-05-20T02:33:03.508Z,993.12
2019-05-20T02:34:03.458Z,993.13
2019-05-20T02:35:03.410Z,993.13
2019-05-20T02:36:03.383Z,993.16
2019-05-20T02:37:03.313Z,993.14
2019-05-20T02:38:03.257Z,993.12
2019-05-20T02:39:03.199Z,993.15
2019-05-20T02:40:03.166Z,993.15
2019-05-20T02:41:03.160Z,993.15
2019-05-20T02:42:03.046Z,993.17
2019-05-20T02:43:03.002Z,993.17
2019-05-20T02:44:02.959Z,993.14
2019-05-20T02:45:02.892Z,993.16
2019-05-20T02:46:02.845Z,993.16
2019-05-20T02:47:02.817Z,993.19
2019-05-20T02:48:02.744Z,993.18
2019-05-20T02:49:02.691Z,993.21
2019-05-20T02:50:02.666Z,993.21
2019-05-20T02:51:02.588Z,993.18
2019-05-20T02:52:02.561Z,993.19
2019-05-20T02:53:02.485Z,993.18
2019-05-20T02:54:02.482Z,993.16
2019-05-20T02:55:02.384Z,993.15
2019-05-20T02:56:02.340Z,993.06
2019-05-20T02:57:02.307Z,993.07
2019-05-20T02:58:02.228Z,993.11
2019-05-20T02:59:02.192Z,993.03
2019-05-20T03:00:02.132Z,993.05
2019-05-20T03:01:02.091Z,993.06
2019-05-20T03:02:02.050Z,993.08
2019-05-20T03:03:01.975Z,993.10
2019-05-20T03:04:11.765Z,993.08
2019-05-20T03:05:01.914Z,993.12
2019-05-20T03:06:01.825Z,993.08
2019-05-20T03:07:01.805Z,993.16
2019-05-20T03:08:01.724Z,993.13
2019-05-20T03:09:01.671Z,993.10
2019-05-20T03:10:01.644Z,993.04
2019-05-20T03:11:01.579Z,993.06
2019-05-20T03:12:01.542Z,993.06
2019-05-20T03:13:01.469Z,993.05
2019-05-20T03:14:01.428Z,993.08
2019-05-20T03:15:01.365Z,993.11
2019-05-20T03:16:01.316Z,993.14
2019-05-20T03:17:01.284Z,993.11
2019-05-20T03:18:01.206Z,993.13
2019-05-20T03:19:01.157Z,993.13
2019-05-20T03:20:01.120Z,993.16
2019-05-20T03:21:01.060Z,993.13
2019-05-20T03:22:01.031Z,993.09
2019-05-20T03:23:00.951Z,993.18
2019-05-20T03:24:00.906Z,993.15
2019-05-20T03:25:00.849Z,993.17
2019-05-20T03:26:00.809Z,993.20
2019-05-20T03:27:00.770Z,993.20
2019-05-20T03:28:00.704Z,993.19
2019-05-20T03:29:00.644Z,993.21
2019-05-20T03:30:00.600Z,993.22
2019-05-20T03:31:00.549Z,993.24
2019-05-20T03:32:00.513Z,993.22
2019-05-20T03:33:00.436Z,993.24
2019-05-20T03:34:00.397Z,993.24
2019-05-20T03:35:01.306Z,993.25
2019-05-20T03:36:00.284Z,993.26
2019-05-20T03:37:00.260Z,993.24
2019-05-20T03:38:00.185Z,993.26
2019-05-20T03:39:00.134Z,993.26
2019-05-20T03:40:00.165Z,993.29
2019-05-20T03:41:00.037Z,993.27
2019-05-20T03:42:00.007Z,993.26
2019-05-20T03:42:59.929Z,993.28
2019-05-20T03:43:59.882Z,993.29
2019-05-20T03:44:59.824Z,993.35
2019-05-20T03:45:59.773Z,993.36
2019-05-20T03:46:59.755Z,993.40
2019-05-20T03:47:59.673Z,993.44
2019-05-20T03:48:59.619Z,993.46
2019-05-20T03:49:59.577Z,993.46
2019-05-20T03:50:59.520Z,993.47
2019-05-20T03:51:59.490Z,993.47
2019-05-20T03:52:59.418Z,993.49
2019-05-20T03:53:59.366Z,993.55
2019-05-20T03:54:59.316Z,993.59
2019-05-20T03:55:59.269Z,993.60
2019-05-20T03:56:59.240Z,993.63
2019-05-20T03:57:59.162Z,993.64
2019-05-20T03:58:59.116Z,993.66
2019-05-20T03:59:59.065Z,993.67
2019-05-20T04:00:59.009Z,993.65
2019-05-20T04:01:58.991Z,993.68
2019-05-20T04:02:58.905Z,993.66
2019-05-20T04:03:58.860Z,993.63
2019-05-20T04:05:02.866Z,993.64
2019-05-20T04:05:58.755Z,993.66
2019-05-20T04:06:58.727Z,993.68
2019-05-20T04:07:58.652Z,993.69
2019-05-20T04:08:58.601Z,993.70
2019-05-20T04:09:58.551Z,993.72
2019-05-20T04:10:58.506Z,993.70
2019-05-20T04:11:58.473Z,993.64
2019-05-20T04:12:58.398Z,993.61
2019-05-20T04:13:58.352Z,993.60
2019-05-20T04:14:58.300Z,993.60
2019-05-20T04:15:58.241Z,993.61
2019-05-20T04:16:58.274Z,993.61
2019-05-20T04:17:58.142Z,993.58
2019-05-20T04:18:58.089Z,993.63
2019-05-20T04:19:58.048Z,993.64
2019-05-20T04:20:57.993Z,993.63
2019-05-20T04:21:57.962Z,993.65
2019-05-20T04:22:57.920Z,993.67
2019-05-20T04:24:00.975Z,993.66
2019-05-20T04:24:57.797Z,993.64
2019-05-20T04:25:57.747Z,993.62
2019-05-20T04:26:57.692Z,993.58
2019-05-20T04:27:57.666Z,993.56
2019-05-20T04:28:57.593Z,993.53
2019-05-20T04:29:57.547Z,993.49
2019-05-20T04:30:57.486Z,993.53
2019-05-20T04:31:57.433Z,993.53
2019-05-20T04:32:57.412Z,993.55
2019-05-20T04:33:57.329Z,993.58
2019-05-20T04:34:57.286Z,993.57
2019-05-20T04:35:57.233Z,993.57
2019-05-20T04:36:57.191Z,993.52
2019-05-20T04:37:57.162Z,993.54
2019-05-20T04:38:57.083Z,993.56
2019-05-20T04:39:57.036Z,993.57
2019-05-20T04:40:56.987Z,993.51
2019-05-20T04:41:56.928Z,993.52
2019-05-20T04:42:56.911Z,993.51
2019-05-20T04:43:56.830Z,993.55
2019-05-20T04:44:56.779Z,993.50
2019-05-20T04:45:56.733Z,993.52
2019-05-20T04:46:58.021Z,993.48
2019-05-20T04:47:56.657Z,993.43
2019-05-20T04:48:56.576Z,993.45
2019-05-20T04:49:56.534Z,993.48
2019-05-20T04:50:56.483Z,993.51
2019-05-20T04:51:56.429Z,993.53
2019-05-20T04:52:56.404Z,993.50
2019-05-20T04:53:56.329Z,993.50
2019-05-20T04:54:56.277Z,993.53
2019-05-20T04:55:56.230Z,993.55
2019-05-20T04:56:56.181Z,993.51
2019-05-20T04:57:56.159Z,993.51
2019-05-20T04:58:56.082Z,993.50
2019-05-20T04:59:56.028Z,993.51
2019-05-20T05:00:55.994Z,993.48
2019-05-20T05:01:55.938Z,993.48
2019-05-20T05:02:55.913Z,993.54
2019-05-20T05:03:55.827Z,993.52
2019-05-20T05:04:55.775Z,993.53
2019-05-20T05:05:55.736Z,993.51
2019-05-20T05:06:55.681Z,993.49
2019-05-20T05:07:55.657Z,993.54
2019-05-20T05:08:55.585Z,993.47
2019-05-20T05:09:55.535Z,993.55
2019-05-20T05:10:55.479Z,993.55
2019-05-20T05:11:55.437Z,993.56
2019-05-20T05:12:55.407Z,993.57
2019-05-20T05:13:55.335Z,993.61
2019-05-20T05:14:55.287Z,993.56
2019-05-20T05:15:55.241Z,993.57
2019-05-20T05:16:55.190Z,993.58
2019-05-20T05:17:55.159Z,993.57
2019-05-20T05:18:55.084Z,993.60
2019-05-20T05:19:55.033Z,993.64
2019-05-20T05:20:54.988Z,993.64
2019-05-20T05:21:54.937Z,993.66
2019-05-20T05:22:54.914Z,993.68
2019-05-20T05:23:59.361Z,993.65
2019-05-20T05:24:54.791Z,993.66
2019-05-20T05:25:54.746Z,993.67
2019-05-20T05:26:54.698Z,993.65
2019-05-20T05:27:54.669Z,993.63
2019-05-20T05:28:54.598Z,993.64
2019-05-20T05:29:54.546Z,993.59
2019-05-20T05:30:54.556Z,993.59
2019-05-20T05:31:54.456Z,993.59
2019-05-20T05:32:54.424Z,993.62
2019-05-20T05:33:54.537Z,993.63
2019-05-20T05:34:54.301Z,993.60
2019-05-20T05:35:54.250Z,993.68
2019-05-20T05:36:54.202Z,993.68
2019-05-20T05:37:54.231Z,993.76
2019-05-20T05:38:54.104Z,993.73
2019-05-20T05:39:54.054Z,993.79
2019-05-20T05:40:54.012Z,993.81
2019-05-20T05:41:53.954Z,993.82
2019-05-20T05:42:53.932Z,993.81
2019-05-20T05:43:53.861Z,993.79
2019-05-20T05:44:53.812Z,993.75
2019-05-20T05:45:53.763Z,993.77
2019-05-20T05:46:53.745Z,993.76
2019-05-20T05:47:53.686Z,993.85
2019-05-20T05:48:53.615Z,993.79
2019-05-20T05:49:53.568Z,993.83
2019-05-20T05:50:53.519Z,993.84
2019-05-20T05:51:53.470Z,993.88
2019-05-20T05:52:53.453Z,993.94
2019-05-20T05:53:53.394Z,993.99
2019-05-20T05:54:53.326Z,993.99
2019-05-20T05:55:53.271Z,993.98
2019-05-20T05:56:53.228Z,993.96
2019-05-20T05:57:53.181Z,993.99
2019-05-20T05:58:53.152Z,994.00
2019-05-20T05:59:53.080Z,994.00
2019-05-20T06:00:53.029Z,994.00
2019-05-20T06:01:52.988Z,993.99
2019-05-20T06:02:52.925Z,993.97
2019-05-20T06:03:52.909Z,993.96
2019-05-20T06:04:52.834Z,993.90
2019-05-20T06:06:10.340Z,993.91
2019-05-20T06:06:52.735Z,993.93
2019-05-20T06:07:52.684Z,993.93
2019-05-20T06:08:52.665Z,993.95
2019-05-20T06:09:52.586Z,993.98
2019-05-20T06:10:52.533Z,993.92
2019-05-20T06:11:52.492Z,993.93
2019-05-20T06:12:52.439Z,993.90
2019-05-20T06:13:52.414Z,993.92
2019-05-20T06:14:52.345Z,993.91
2019-05-20T06:15:54.592Z,993.94
2019-05-20T06:16:52.240Z,993.97
2019-05-20T06:17:52.200Z,993.97
2019-05-20T06:18:52.172Z,993.97
2019-05-20T06:19:52.103Z,994.01
2019-05-20T06:20:52.051Z,993.98
2019-05-20T06:21:51.992Z,993.95
2019-05-20T06:22:51.951Z,993.98
2019-05-20T06:23:51.927Z,993.97
2019-05-20T06:24:51.866Z,993.96
2019-05-20T06:25:51.798Z,993.96
2019-05-20T06:26:51.756Z,993.94
2019-05-20T06:27:51.703Z,993.98
2019-05-20T06:28:51.678Z,993.99
2019-05-20T06:29:51.605Z,994.00
2019-05-20T06:30:51.553Z,994.02
2019-05-20T06:31:51.573Z,994.00
2019-05-20T06:32:51.453Z,994.02
2019-05-20T06:33:51.430Z,994.01
2019-05-20T06:34:51.375Z,994.00
2019-05-20T06:35:51.304Z,994.04
2019-05-20T06:36:51.261Z,994.01
2019-05-20T06:37:51.212Z,993.99
2019-05-20T06:38:51.190Z,993.99
2019-05-20T06:39:51.417Z,994.04
2019-05-20T06:40:51.068Z,994.08
2019-05-20T06:41:51.020Z,994.08
2019-05-20T06:42:50.967Z,994.11
2019-05-20T06:43:50.938Z,994.11
2019-05-20T06:44:53.961Z,994.15
2019-05-20T06:45:50.815Z,994.16
2019-05-20T06:46:50.769Z,994.20
2019-05-20T06:47:50.723Z,994.17
2019-05-20T06:48:50.701Z,994.20
2019-05-20T06:49:50.622Z,994.23
2019-05-20T06:50:50.574Z,994.22
2019-05-20T06:51:50.524Z,994.22
2019-05-20T06:52:50.471Z,994.21
2019-05-20T06:53:50.455Z,994.26
2019-05-20T06:54:50.383Z,994.28
2019-05-20T06:55:50.329Z,994.29
2019-05-20T06:56:50.306Z,994.30
2019-05-20T06:57:50.228Z,994.34
2019-05-20T06:58:50.206Z,994.37
2019-05-20T06:59:50.138Z,994.40
2019-05-20T07:00:50.080Z,994.40
2019-05-20T07:01:50.033Z,994.39
2019-05-20T07:02:52.125Z,994.40
2019-05-20T07:03:49.958Z,994.41
2019-05-20T07:04:49.887Z,994.41
2019-05-20T07:05:49.839Z,994.42
2019-05-20T07:06:49.794Z,994.43
2019-05-20T07:07:49.732Z,994.48
2019-05-20T07:08:49.715Z,994.46
2019-05-20T07:09:49.641Z,994.47
2019-05-20T07:10:49.591Z,994.45
2019-05-20T07:11:52.747Z,994.43
2019-05-20T07:12:49.490Z,994.46
2019-05-20T07:13:49.468Z,994.44
2019-05-20T07:14:49.401Z,994.45
2019-05-20T07:15:49.346Z,994.46
2019-05-20T07:16:49.459Z,994.45
2019-05-20T07:17:49.246Z,994.44
2019-05-20T07:18:49.237Z,994.47
2019-05-20T07:19:49.174Z,994.47
2019-05-20T07:20:49.097Z,994.47
2019-05-20T07:21:49.051Z,994.43
2019-05-20T07:22:55.835Z,994.41
2019-05-20T07:23:52.308Z,994.42
2019-05-20T07:24:48.933Z,994.39
2019-05-20T07:25:48.863Z,994.41
2019-05-20T07:26:48.802Z,994.42
2019-05-20T07:27:48.760Z,994.45
2019-05-20T07:28:48.713Z,994.48
2019-05-20T07:29:48.682Z,994.45
2019-05-20T07:30:48.607Z,994.48
2019-05-20T07:31:48.562Z,994.50
2019-05-20T07:32:48.511Z,994.51
2019-05-20T07:33:48.456Z,994.53
2019-05-20T07:34:48.441Z,994.52
2019-05-20T07:35:48.378Z,994.50
2019-05-20T07:37:01.888Z,994.51
2019-05-20T07:37:48.266Z,994.51
2019-05-20T07:38:48.212Z,994.52
2019-05-20T07:39:48.186Z,994.49
2019-05-20T07:40:48.115Z,994.48
2019-05-20T07:41:48.063Z,994.49
2019-05-20T07:42:48.014Z,994.49
2019-05-20T07:43:47.967Z,994.48
2019-05-20T07:44:47.941Z,994.51
2019-05-20T07:45:47.874Z,994.52
2019-05-20T07:46:47.818Z,994.48
2019-05-20T07:47:47.776Z,994.53
2019-05-20T07:48:47.735Z,994.52
2019-05-20T07:49:47.699Z,994.49
2019-05-20T07:50:47.617Z,994.54
2019-05-20T07:51:47.575Z,994.57
2019-05-20T07:52:47.524Z,994.57
2019-05-20T07:53:47.489Z,994.56
2019-05-20T07:54:47.445Z,994.55
2019-05-20T07:55:47.405Z,994.60
2019-05-20T07:56:47.328Z,994.57
2019-05-20T07:57:47.277Z,994.57
2019-05-20T07:58:47.222Z,994.57
2019-05-20T07:59:47.229Z,994.56
2019-05-20T08:00:47.132Z,994.53
2019-05-20T08:01:47.084Z,994.54
2019-05-20T08:02:47.053Z,994.51
2019-05-20T08:03:46.977Z,994.51
2019-05-20T08:04:46.976Z,994.49
2019-05-20T08:05:46.912Z,994.50
2019-05-20T08:06:46.842Z,994.48
2019-05-20T08:07:52.375Z,994.47
2019-05-20T08:08:46.745Z,994.49
2019-05-20T08:09:46.764Z,994.47
2019-05-20T08:10:46.665Z,994.49
2019-05-20T08:11:46.605Z,994.49
2019-05-20T08:12:46.537Z,994.51
2019-05-20T08:13:46.482Z,994.56
2019-05-20T08:14:46.442Z,994.59
2019-05-20T08:15:46.417Z,994.58
2019-05-20T08:16:46.343Z,994.64
2019-05-20T08:17:46.304Z,994.65
2019-05-20T08:18:46.263Z,994.68
2019-05-20T08:19:46.192Z,994.69
2019-05-20T08:20:46.162Z,994.69
2019-05-20T08:21:46.091Z,994.67
2019-05-20T08:22:46.045Z,994.67
2019-05-20T08:23:49.882Z,994.66
2019-05-20T08:24:45.947Z,994.64
2019-05-20T08:25:45.917Z,994.66
2019-05-20T08:26:45.871Z,994.67
2019-05-20T08:27:45.794Z,994.68
2019-05-20T08:28:45.748Z,994.71
2019-05-20T08:29:45.697Z,994.69
2019-05-20T08:30:45.682Z,994.73
2019-05-20T08:31:45.609Z,994.73
2019-05-20T08:32:45.552Z,994.71
2019-05-20T08:33:45.496Z,994.77
2019-05-20T08:34:45.452Z,994.75
2019-05-20T08:35:45.430Z,994.76
2019-05-20T08:36:45.356Z,994.78
2019-05-20T08:37:46.176Z,994.81
2019-05-20T08:38:45.254Z,994.79
2019-05-20T08:39:45.206Z,994.78
2019-05-20T08:40:48.480Z,994.86
2019-05-20T08:41:45.112Z,994.83
2019-05-20T08:42:45.064Z,994.82
2019-05-20T08:43:45.009Z,994.80
2019-05-20T08:44:45.070Z,994.85
2019-05-20T08:45:44.942Z,994.82
2019-05-20T08:46:44.861Z,994.86
2019-05-20T08:47:44.811Z,994.84
2019-05-20T08:48:44.774Z,994.81
2019-05-20T08:49:44.849Z,994.78
2019-05-20T08:50:44.692Z,994.78
2019-05-20T08:51:44.631Z,994.75
2019-05-20T08:52:44.573Z,994.76
2019-05-20T08:53:44.525Z,994.81
2019-05-20T08:54:44.474Z,994.83
2019-05-20T08:55:44.445Z,994.86
2019-05-20T08:56:44.375Z,994.87
2019-05-20T08:57:44.327Z,994.86
2019-05-20T08:58:44.276Z,994.86
2019-05-20T08:59:44.227Z,994.90
2019-05-20T09:00:44.198Z,994.89
2019-05-20T09:01:44.131Z,994.86
2019-05-20T09:02:44.080Z,994.87
2019-05-20T09:03:44.045Z,994.86
2019-05-20T09:04:43.975Z,994.88
2019-05-20T09:05:43.961Z,994.86
2019-05-20T09:06:43.883Z,994.87
2019-05-20T09:07:43.895Z,994.80
2019-05-20T09:08:43.858Z,994.78
2019-05-20T09:09:43.734Z,994.81
2019-05-20T09:10:43.711Z,994.78
2019-05-20T09:11:47.290Z,994.82
2019-05-20T09:12:43.710Z,994.78
2019-05-20T09:13:43.559Z,994.77
2019-05-20T09:14:43.494Z,994.81
2019-05-20T09:15:45.359Z,994.78
2019-05-20T09:16:43.393Z,994.81
2019-05-20T09:17:43.340Z,994.80
2019-05-20T09:18:43.310Z,994.79
2019-05-20T09:19:46.711Z,994.81
2019-05-20T09:20:43.287Z,994.80
2019-05-20T09:21:43.153Z,994.84
2019-05-20T09:22:43.112Z,994.86
2019-05-20T09:23:43.046Z,994.83
2019-05-20T09:24:43.098Z,994.87
2019-05-20T09:25:42.983Z,994.85
2019-05-20T09:26:42.905Z,994.87
2019-05-20T09:27:42.862Z,994.83
2019-05-20T09:28:42.801Z,994.83
2019-05-20T09:29:42.754Z,994.84
2019-05-20T09:30:42.780Z,994.83
2019-05-20T09:31:42.664Z,994.85
2019-05-20T09:32:43.321Z,994.80
2019-05-20T09:33:42.577Z,994.81
2019-05-20T09:34:42.515Z,994.79
2019-05-20T09:35:42.657Z,994.80
2019-05-20T09:36:42.459Z,994.80
2019-05-20T09:37:42.383Z,994.80
2019-05-20T09:38:42.329Z,994.79
2019-05-20T09:39:42.271Z,994.80
2019-05-20T09:40:42.216Z,994.74
2019-05-20T09:41:42.205Z,994.76
2019-05-20T09:42:42.115Z,994.76
2019-05-20T09:43:42.085Z,994.78
2019-05-20T09:44:42.027Z,994.76
2019-05-20T09:45:41.996Z,994.76
2019-05-20T09:46:41.952Z,994.80
2019-05-20T09:47:41.875Z,994.78
2019-05-20T09:48:41.820Z,994.76
2019-05-20T09:49:41.780Z,994.75
2019-05-20T09:50:41.726Z,994.78
2019-05-20T09:51:41.708Z,994.78
2019-05-20T09:52:41.627Z,994.78
2019-05-20T09:53:41.580Z,994.78
2019-05-20T09:54:45.313Z,994.81
2019-05-20T09:55:41.483Z,994.84
2019-05-20T09:56:41.463Z,994.84
2019-05-20T09:57:41.382Z,994.79
2019-05-20T09:58:41.335Z,994.79
2019-05-20T09:59:43.703Z,994.83
2019-05-20T10:00:41.246Z,994.81
2019-05-20T10:01:41.213Z,994.86
2019-05-20T10:02:41.146Z,994.86
2019-05-20T10:03:41.101Z,994.90
2019-05-20T10:04:41.050Z,994.89
2019-05-20T10:05:41.001Z,994.85
2019-05-20T10:06:40.973Z,994.87
2019-05-20T10:07:40.909Z,994.88
2019-05-20T10:08:44.762Z,994.90
2019-05-20T10:09:40.800Z,994.94
2019-05-20T10:10:40.757Z,994.87
2019-05-20T10:11:40.737Z,994.87
2019-05-20T10:12:46.472Z,994.87
2019-05-20T10:13:40.609Z,994.87
2019-05-20T10:14:40.562Z,994.88
2019-05-20T10:15:40.512Z,994.91
2019-05-20T10:16:40.489Z,994.91
2019-05-20T10:17:40.418Z,994.90
2019-05-20T10:18:40.369Z,994.94
2019-05-20T10:19:40.316Z,994.93
2019-05-20T10:20:40.333Z,994.93
2019-05-20T10:21:40.251Z,994.94
2019-05-20T10:22:40.179Z,994.92
2019-05-20T10:23:40.129Z,994.90
2019-05-20T10:24:40.083Z,994.87
2019-05-20T10:25:40.089Z,994.85
2019-05-20T10:26:40.013Z,994.88
2019-05-20T10:27:39.933Z,994.85
2019-05-20T10:28:42.262Z,994.81
2019-05-20T10:29:39.848Z,994.84
2019-05-20T10:30:39.805Z,994.84
2019-05-20T10:31:39.783Z,994.83
2019-05-20T10:32:39.700Z,994.80
2019-05-20T10:33:39.673Z,994.78
2019-05-20T10:34:39.596Z,994.80
2019-05-20T10:35:39.549Z,994.81
2019-05-20T10:36:39.530Z,994.85
2019-05-20T10:37:39.474Z,994.87
2019-05-20T10:38:56.818Z,994.82
2019-05-20T10:39:39.360Z,994.82
2019-05-20T10:40:39.317Z,994.89
2019-05-20T10:41:39.297Z,994.86
2019-05-20T10:42:39.210Z,994.88
2019-05-20T10:43:39.170Z,994.92
2019-05-20T10:44:41.889Z,994.89
2019-05-20T10:45:39.076Z,994.87
2019-05-20T10:46:39.048Z,994.85
2019-05-20T10:47:39.011Z,994.85
2019-05-20T10:48:38.932Z,994.88
2019-05-20T10:49:38.950Z,994.86
2019-05-20T10:50:38.835Z,994.88
2019-05-20T10:51:38.788Z,994.92
2019-05-20T10:52:38.766Z,994.88
2019-05-20T10:53:38.690Z,994.87
2019-05-20T10:54:38.651Z,994.87
2019-05-20T10:55:38.599Z,994.85
2019-05-20T10:56:38.557Z,994.86
2019-05-20T10:57:38.530Z,994.84
2019-05-20T10:58:38.459Z,994.84
2019-05-20T10:59:38.413Z,994.88
2019-05-20T11:00:38.365Z,994.91
2019-05-20T11:01:38.316Z,994.90
2019-05-20T11:02:38.295Z,994.91
2019-05-20T11:03:38.226Z,994.90
2019-05-20T11:04:38.179Z,994.88
2019-05-20T11:05:38.122Z,994.89
2019-05-20T11:06:38.077Z,994.90
2019-05-20T11:07:38.068Z,994.88
2019-05-20T11:08:37.979Z,994.89
2019-05-20T11:09:37.949Z,994.88
2019-05-20T11:10:37.918Z,994.91
2019-05-20T11:11:39.487Z,994.95
2019-05-20T11:12:37.813Z,994.94
2019-05-20T11:13:37.752Z,994.96
2019-05-20T11:14:37.700Z,994.98
2019-05-20T11:15:37.644Z,994.98
2019-05-20T11:16:37.601Z,994.97
2019-05-20T11:17:37.582Z,994.97
2019-05-20T11:18:37.506Z,994.92
2019-05-20T11:19:37.462Z,994.89
2019-05-20T11:20:37.416Z,994.91
2019-05-20T11:21:37.373Z,994.93
2019-05-20T11:22:37.338Z,994.92
2019-05-20T11:23:37.277Z,994.89
2019-05-20T11:24:37.225Z,994.89
2019-05-20T11:25:37.192Z,994.93
2019-05-20T11:26:37.130Z,994.90
2019-05-20T11:27:37.107Z,994.94
2019-05-20T11:28:37.032Z,994.96
2019-05-20T11:29:36.999Z,994.94
2019-05-20T11:30:37.022Z,994.93
2019-05-20T11:31:36.894Z,994.96
2019-05-20T11:32:36.871Z,994.96
2019-05-20T11:33:36.800Z,994.93
2019-05-20T11:34:36.909Z,994.91
2019-05-20T11:35:36.705Z,994.92
2019-05-20T11:36:36.667Z,994.89
2019-05-20T11:37:36.631Z,994.89
2019-05-20T11:38:36.562Z,994.89
2019-05-20T11:39:36.515Z,994.90
2019-05-20T11:40:36.466Z,994.93
2019-05-20T11:41:53.779Z,994.87
2019-05-20T11:42:36.408Z,994.91
2019-05-20T11:43:36.326Z,994.92
2019-05-20T11:44:36.277Z,994.92
2019-05-20T11:45:36.229Z,994.87
2019-05-20T11:46:36.188Z,994.89
2019-05-20T11:47:36.165Z,994.88
2019-05-20T11:48:36.084Z,994.90
2019-05-20T11:49:36.045Z,994.88
2019-05-20T11:50:35.994Z,994.84
2019-05-20T11:51:36.001Z,994.88
2019-05-20T11:52:35.924Z,994.83
2019-05-20T11:53:35.852Z,994.82
2019-05-20T11:54:35.812Z,994.80
2019-05-20T11:55:35.810Z,994.80
2019-05-20T11:56:35.711Z,994.80
2019-05-20T11:57:35.685Z,994.82
2019-05-20T11:58:35.613Z,994.81
2019-05-20T11:59:35.580Z,994.79
2019-05-20T12:00:35.523Z,994.76
2019-05-20T12:01:35.474Z,994.80
2019-05-20T12:02:35.454Z,994.78
2019-05-20T12:03:35.388Z,994.79
2019-05-20T12:04:35.342Z,994.81
2019-05-20T12:05:35.279Z,994.80
2019-05-20T12:06:35.240Z,994.81
2019-05-20T12:07:35.216Z,994.84
2019-05-20T12:08:35.146Z,994.83
2019-05-20T12:09:48.376Z,994.83
2019-05-20T12:10:35.055Z,994.85
2019-05-20T12:11:35.015Z,994.83
2019-05-20T12:12:34.975Z,994.81
2019-05-20T12:13:34.901Z,994.81
2019-05-20T12:14:34.860Z,994.78
2019-05-20T12:15:34.808Z,994.77
2019-05-20T12:16:34.770Z,994.80
2019-05-20T12:17:34.737Z,994.81
2019-05-20T12:18:34.672Z,994.77
2019-05-20T12:19:34.623Z,994.79
2019-05-20T12:20:34.577Z,994.76
2019-05-20T12:21:34.531Z,994.78
2019-05-20T12:22:34.538Z,994.73
2019-05-20T12:23:34.437Z,994.71
2019-05-20T12:24:34.390Z,994.73
2019-05-20T12:25:34.343Z,994.69
2019-05-20T12:26:34.292Z,994.71
2019-05-20T12:27:34.249Z,994.70